Tiempo atmosférico en la estación meteorológica de Asturias Aeropuerto, Asturias (127 m.)



Fecha
DESCASC
Temp. máxima en grados centígrados (hora)
DESCASC
Temp. mínima en grados centígrados (hora)
DESCASC
Temp. media en grados centígrados
DESCASC
Racha de viento máxima en m/sg (hora)
DESCASC
Velocidad máxima media en intervalos de 10 minutos(hora)
DESCASC
Precipitaciones diarias en mm
DESCASC
Precipitaciones de 00:00 a 06:00 en mm
DESCASC
Precipitaciones de 06:00 a 12:00 en mm
DESCASC
Precipitaciones de 12:00 a 18:00 en mm
DESCASC
Precipitaciones de 18:00 a 24:00 en mm
DESCASC
23-06-2019 19.7 (17:10) 15.1 (08:00) 17.4 8.33 (21:00) 5.28 (05:10) 4.7 0.1 2.7 1.9 0
22-06-2019 23.4 (12:40) 11.4 (05:20) 17.4 6.67 (13:20) 5 (01:10) 0 0 0 0 0
21-06-2019 18.9 (13:50) 13.5 (08:00) 16.2 10.28 (16:40) 7.22 (17:10) 3.3 3.2 0.1 0 0
20-06-2019 16.8 (16:10) 14 (00:00) 15.4 6.11 (15:30) 3.33 (15:50) 0.1 0.1 0 0 0
19-06-2019 19.6 (12:40) 13.4 (00:00) 16.5 7.22 (01:00) 5 (01:10) 0.9 0.3 0 0 0.6
18-06-2019 20.8 (17:20) 13.1 (00:00) 16.9 8.33 (11:20) 5.28 (11:10) 0.9 0 0 0 0.9
17-06-2019 17.6 (15:00) 14.1 (00:00) 15.9 4.72 (06:00) 2.78 (00:50) 0 0 0 0 0
16-06-2019 19.4 (17:10) 11.2 (00:00) 15.3 8.89 (13:50) 4.44 (13:50) 0 0 0 0 0
15-06-2019 18.3 (16:20) 12 (00:00) 15.1 8.89 (00:30) 4.17 (05:10) 0 0 0 0 0
14-06-2019 16.8 (16:10) 9.7 (00:00) 13.2 6.11 (07:10) 3.33 (22:30) 0 0 0 0 0
13-06-2019 15.9 (12:10) 9.6 (00:00) 12.8 -- (--) -- (--) 0 0 0 0 0
12-06-2019 16.8 (14:00) 9.2 (00:00) 13 12.5 (01:00) 6.67 (01:00) 1.3 1 0.3 0 0
11-06-2019 16.3 (14:40) 11 (00:00) 13.6 12.78 (22:50) 8.06 (20:50) 3.4 2.4 1 0 0
10-06-2019 16.7 (16:10) 8.4 (00:00) 12.6 8.33 (18:30) 4.44 (13:40) 0.1 0 0 0 0.1
09-06-2019 15 (13:50) 11.4 (00:00) 13.2 7.22 (08:10) 4.72 (08:30) 1 0.2 0.8 0 0
08-06-2019 16.7 (15:00) 7.9 (00:00) 12.3 7.78 (15:20) 4.72 (08:10) 0.4 0 0 0 0.4
07-06-2019 16.4 (14:30) 11.3 (00:00) 13.8 20.56 (07:20) 13.06 (07:20) 1.8 0 0 0.5 1.3
06-06-2019 22.3 (15:20) 7.4 (00:00) 14.8 12.78 (22:00) 8.06 (15:10) 1.3 0 0 0.9 0.4
05-06-2019 16.1 (15:00) 10 (00:00) 13.1 13.33 (13:00) 7.78 (10:50) 6 3.9 0.3 0.1 1.7
04-06-2019 19.2 (10:30) 13.1 (00:00) 16.2 18.89 (11:40) 13.89 (11:40) 1.4 0 0 0 1.4
03-06-2019 18.7 (12:30) 15.1 (00:00) 16.9 5 (00:10) 3.33 (01:20) 0 0 0 0 0
02-06-2019 20.1 (10:50) 13.2 (00:00) 16.7 6.11 (07:20) 3.89 (09:00) 0 0 0 0 0
01-06-2019 23.5 (10:40) 16.8 (00:00) 20.1 10.28 (07:20) 5.28 (06:00) 0 0 0 0 0
31-05-2019 28.7 (18:40) 12.5 (00:00) 20.6 9.72 (15:00) 7.78 (15:10) 0 0 0 0 0
30-05-2019 25 (16:10) 11.4 (00:00) 18.2 13.33 (16:20) 8.89 (18:10) -- 0 0 -- 0
29-05-2019 19.4 (17:20) 10.6 (00:00) 15 9.72 (21:40) 7.5 (21:40) 0 0 0 0 0
28-05-2019 17.2 (16:20) 9.9 (00:00) 13.6 7.22 (09:40) 4.44 (13:10) 0 0 0 0 0

Gráficas

Temp. máximas Temp. mínimas Temp. medias Precipitaciones Rachas de viento máximas Velocidades máximas media en intervalos de 10 minutos

Datos horarios

Fecha y hora oficial Temperatura (ºC) Velocidad del viento (km/h) Dirección del viento Racha (km/h) Dirección de racha Precipitación (mm) Presión (hPa) Tendencia (hPa) Humedad (%)
2019-06-26 23:00:00 16.7 5 Sur 5 Sur 0 1003.6 1.6 88
2019-06-26 22:00:00 17.8 3 Nordeste 11 Noroeste 0 1002.9 1.8 85
2019-06-26 21:00:00 18.7 9 Oeste 13 Noroeste 0 1002.4 2.2 84
2019-06-26 20:00:00 19.3 9 Noroeste 21 Oeste 0 1002 2.6 88
2019-06-26 19:00:00 18.3 11 Noroeste 24 Noroeste 0 1001.1 1.8 94
2019-06-26 18:00:00 19.8 13 Noroeste 18 Noroeste 0 1000.2 1 89
2019-06-26 17:00:00 21.6 7 Noroeste 13 Norte 0 999.4 0.8 81
2019-06-26 16:00:00 19.6 7 Nordeste 21 Norte 0 999.3 0.7 89
2019-06-26 15:00:00 19.7 13 Noroeste 21 Noroeste 0 999.2 0.5 89
2019-06-26 14:00:00 21.6 7 Norte 13 Norte 0 998.6 -0.3 82
2019-06-26 13:00:00 20.9 8 Norte 15 Norte 0 998.6 -0.7 85
2019-06-26 12:00:00 20.4 9 Nordeste 15 Sudeste 0 998.7 -0.9 85
2019-06-26 11:00:00 19.9 9 Sudeste 17 Sudeste 0 998.9 -1.1 88
2019-06-26 10:00:00 17.9 11 Sudeste 18 Sudeste 0 999.3 -1 98
2019-06-26 09:00:00 17.1 14 Sudeste 24 Sudeste 0 999.6 -0.9 99
2019-06-26 08:00:00 16.7 16 Este 24 Este 0 1000 -0.8 99
2019-06-26 07:00:00 16.7 13 Este 22 Este 0 1000.3 -1 99
2019-06-26 06:00:00 16.7 14 Este 24 Este 0 1000.5 -1.4 99
2019-06-26 05:00:00 16.6 13 Este 26 Sudeste 0 1000.8 -1.2 98
2019-06-26 04:00:00 16.6 12 Este -- -- -- 1001.3 -1.1 99
2019-06-26 03:00:00 16.5 9 Este 18 Este 0 1001.9 -1.2 99
2019-06-26 02:00:00 16.6 10 Este 21 Este 0 1002 -0.9 99
2019-06-26 01:00:00 16.7 14 Este 22 Este 0.3 1002.4 0.1 99
2019-06-26 00:00:00 16.7 12 Este 17 Este 0 1003.1 0.7 98
2019-06-25 23:00:00 16.7 13 Sudeste 21 Este 0 1002.9 0.5 98
2019-06-25 22:00:00 17.1 15 Este 21 Este 0 1002.3 0.3 96
2019-06-25 21:00:00 18.5 14 Este 22 Este 0 1002.4 0 90
2019-06-25 20:00:00 19 14 Sudeste 22 Este 0 1002.4 0 87
2019-06-25 19:00:00 18.8 17 Sudeste 30 Este 0 1002 -0.7 88
2019-06-25 18:00:00 18.3 12 Este 22 Este 0 1002.4 -0.2 91
2019-06-25 17:00:00 18.3 13 Este 22 Este 0 1002.4 -0.3 93
2019-06-25 16:00:00 17 10 Este 18 Este 0 1002.7 0.3 97
2019-06-25 15:00:00 16.8 12 Este 21 Este 0 1002.6 0.5 97
2019-06-25 14:00:00 17.3 12 Este 18 Este 0 1002.7 0.5 95
2019-06-25 13:00:00 16.9 5 Noroeste 13 Noroeste 0 1002.4 0.2 97
2019-06-25 12:00:00 17.7 7 Nordeste 13 Este 0 1002.1 0.4 93
2019-06-25 11:00:00 16.9 9 Este 15 Este 0 1002.2 0.9 97
2019-06-25 10:00:00 16.8 5 Este 9 Este 0 1002.2 1.1 99
2019-06-25 09:00:00 16.3 5 Nordeste 9 Nordeste 0 1001.7 0.4 100
2019-06-25 08:00:00 15.8 2 Sur 13 Sur 0 1001.3 0.2 100
2019-06-25 07:00:00 15.6 3 Sudeste 5 Sudeste 0 1001.1 0 100
2019-06-25 06:00:00 15.6 2 Noroeste 9 Oeste 0 1001.3 0.4 100
2019-06-25 05:00:00 15.7 7 Oeste 15 Oeste 0 1001.1 0 100
2019-06-25 04:00:00 15.7 10 Oeste 21 Oeste 0 1001.1 0 100
2019-06-25 03:00:00 15.7 14 Oeste 21 Oeste 0 1000.9 -0.1 100
2019-06-25 02:00:00 15.6 16 Oeste 22 Oeste 0 1001.1 0.6 100
2019-06-25 01:00:00 16.1 8 Noroeste 13 Noroeste 0 1001.1 0.9 99
2019-06-25 00:00:00 15.2 3 Sudoeste 9 Sudeste 0 1001 0.7 98
2019-06-24 23:00:00 16.1 4 Sur 13 Sudeste 0 1000.5 1 98
2019-06-24 22:00:00 16.7 9 Sur 15 Sudeste 0 1000.2 0.5 98
2019-06-24 21:00:00 17.1 10 Sudeste 13 Sudeste 0 1000.3 0.7 98
2019-06-24 20:00:00 17.3 11 Sudeste 15 Este 0 999.5 0.5 98
2019-06-24 19:00:00 17 10 Este 15 Este 0 999.7 0.1 97
2019-06-24 18:00:00 17.4 8 Este 18 Sudeste 0 999.6 0.2 97
2019-06-24 17:00:00 16.8 14 Sudeste 21 Este 0.9 999 -0.5 98
2019-06-24 16:00:00 16.9 11 Este 21 Este 0.6 999.6 0.3 98
2019-06-24 15:00:00 16.8 10 Este 17 Este 1.1 999.4 0.1 99
2019-06-24 14:00:00 15.9 10 Este 18 Este 3.4 999.5 0.2 98
2019-06-24 13:00:00 16.3 4 Nordeste 9 Nordeste 0.3 999.3 0.1 97
2019-06-24 12:00:00 16.1 5 Este 11 Este 0.5 999.3 0.7 98
2019-06-24 11:00:00 15.7 5 Este 13 Este 0.2 999.3 0.2 98
2019-06-24 10:00:00 15.3 0 Calma 15 Este 0 999.2 1.1 99
2019-06-24 09:00:00 15 3 Nordeste 18 Este 0 998.6 0.6 99
2019-06-24 08:00:00 15.1 5 Noroeste 15 Este 0 999.1 1 99
2019-06-24 07:00:00 15.2 6 Este 15 Este 0 998.1 -0.5 99
2019-06-24 06:00:00 15.2 9 Este 18 Este 0 998 -0.5 99
2019-06-24 05:00:00 15.3 8 Este 13 Este 0 998.1 -0.5 99
2019-06-24 04:00:00 15.1 5 Este 18 Este 2.1 998.6 -0.3 99
2019-06-24 03:00:00 15.3 10 Este 17 Este 0.8 998.5 -0.1 99
2019-06-24 02:00:00 15.6 8 Este 21 Este 2.7 998.6 0.5 97
2019-06-24 01:00:00 16.6 10 Este 21 Este 0 998.9 1.1 88
2019-06-24 00:00:00 16.8 14 Este 30 Este 0 998.6 0.9 83
2019-06-23 23:00:00 17.1 17 Este 28 Este 0 998.1 0.7 82
2019-06-23 22:00:00 17.3 16 Este 30 Este 0 997.8 0.8 85
2019-06-23 21:00:00 17.7 19 Este 30 Sudeste 0 997.7 0.6 85
2019-06-23 20:00:00 18.4 12 Este 26 Este 0 997.4 0.2 82
2019-06-23 19:00:00 18.9 10 Este 22 Este 0 997 0 82
2019-06-23 18:00:00 19.2 14 Sudeste 22 Sudeste 0 997.1 0.3 82
2019-06-23 17:00:00 19.3 10 Este 17 Este 0 997.2 0.4 87
2019-06-23 16:00:00 17.1 11 Este 21 Este 0 997 0 90
2019-06-23 15:00:00 18 6 Nordeste 15 Nordeste 0 996.8 -0.2 92
2019-06-23 14:00:00 17.7 9 Norte 17 Sudeste 0 996.8 0 94
2019-06-23 13:00:00 17 6 Este 13 Noroeste 1.9 997 1.7 96
2019-06-23 12:00:00 17 10 Sudeste 13 Sudeste 1.6 997 2.2 93
2019-06-23 11:00:00 17 0 Calma 13 Noroeste 0.2 996.8 1.8 88
2019-06-23 10:00:00 18.7 5 Este 13 Este 0 995.3 0.2 85
2019-06-23 09:00:00 17.8 2 Nordeste 9 Norte 0 994.8 -0.4 89
2019-06-23 08:00:00 15.3 0 Calma 11 Sudeste 0.5 995 -0.5 95
2019-06-23 07:00:00 15.7 0 Calma 26 Oeste 0.4 995.1 -0.1 93
2019-06-23 06:00:00 15.7 8 Oeste 28 Noroeste 0 995.2 0.4 94
2019-06-23 05:00:00 16.5 16 Noroeste 28 Oeste 0.1 995.5 0.7 87
2019-06-23 04:00:00 16.4 13 Oeste 22 Oeste 0 995.2 -0.2 85
2019-06-23 03:00:00 15.8 9 Oeste 13 Oeste 0 994.8 -1.2 95
2019-06-23 02:00:00 15.4 2 Sudoeste 8 Oeste 0 994.8 -1.9 93
2019-06-23 01:00:00 15.7 0 Calma 8 Sudeste 0 995.4 -1 92
2019-06-23 00:00:00 15.9 5 Oeste 18 Noroeste 0 996 -0.3 91
2019-06-22 23:00:00 16 9 Noroeste 17 Oeste 0 996.7 0.6 98
2019-06-22 22:00:00 16.1 8 Noroeste 17 Noroeste 0 996.4 0.5 97
2019-06-22 21:00:00 16.6 10 Noroeste 21 Oeste 0 996.3 0.1 96
2019-06-22 20:00:00 17.3 9 Noroeste 17 Noroeste 0 996.1 -0.2 92
2019-06-22 19:00:00 18.3 11 Noroeste 18 Noroeste 0 995.9 -0.8 85
2019-06-22 18:00:00 19.4 11 Noroeste 21 Noroeste 0 996.2 -0.9 75
2019-06-22 17:00:00 19.3 9 Noroeste 17 Noroeste 0 996.3 -1.3 74
2019-06-22 16:00:00 20 8 Noroeste 17 Noroeste 0 996.7 -1 69
2019-06-22 15:00:00 19.6 9 Noroeste 21 Noroeste 0 997.1 -0.7 71
2019-06-22 14:00:00 20.2 11 Noroeste 24 Oeste 0 997.6 -0.3 69
2019-06-22 13:00:00 21.6 9 Noroeste 15 Noroeste 0 997.7 -0.8 72
2019-06-22 12:00:00 21.2 7 Este 15 Este 0 997.8 -1.5 73
2019-06-22 11:00:00 20 6 Sudeste 17 Sudeste 0 997.9 -1.8 75
2019-06-22 10:00:00 16.3 9 Sudeste 18 Sur 0 998.5 -1.5 84
2019-06-22 09:00:00 14.3 13 Sudoeste 21 Sudoeste 0 999.3 -1 91
2019-06-22 08:00:00 13.8 5 Sur 21 Norte 0 999.7 -1.5 94
2019-06-22 07:00:00 12.2 6 Sur 15 Sur 0 1000 -1.6 96
2019-06-22 06:00:00 12.5 14 Sur 17 Sudeste 0 1000.3 -2.1 95
2019-06-22 05:00:00 11.8 9 Sudeste 13 Sudeste 0 1001.2 -2 95
2019-06-22 04:00:00 12.2 12 Sudeste 21 Sudeste 0 1001.6 -2 94
2019-06-22 03:00:00 12.7 16 Sudeste 22 Sudeste 0 1002.4 -2.1 94
2019-06-22 02:00:00 13.2 14 Sudeste 22 Sudeste 0 1003.2 -1.4 92
2019-06-22 01:00:00 13.2 17 Sudeste 22 Este 0 1003.6 -1.1 93
2019-06-22 00:00:00 14.1 15 Sudeste 26 Este 0 1004.5 -0.5 89
2019-06-21 23:00:00 14.1 14 Este 32 Sudeste 0 1004.6 -0.2 88
2019-06-21 22:00:00 15.1 21 Este 32 Este 0 1004.7 0.2 83
2019-06-21 21:00:00 16.7 17 Este 30 Este 0 1005 0.1 77
2019-06-21 20:00:00 17.7 16 Este 33 Este 0 1004.8 0 72
2019-06-21 19:00:00 17.7 17 Este 37 Nordeste 0 1004.5 -0.6 72
2019-06-21 18:00:00 18 23 Este 37 Este 0 1004.9 -0.3 72
2019-06-21 17:00:00 18.3 25 Este 37 Este 0 1004.8 -0.9 73
2019-06-21 16:00:00 18.7 19 Este 33 Este 0 1005.1 -0.6 73
2019-06-21 15:00:00 18.4 20 Este 32 Este 0 1005.2 -1 76
2019-06-21 14:00:00 18.2 13 Este 26 Nordeste 0 1005.7 -0.2 70
2019-06-21 13:00:00 17.6 12 Sudeste 24 Este 0 1005.7 -0.3 78
2019-06-21 12:00:00 15.4 12 Sudeste 22 Sudeste 0 1006.2 0.3 87
2019-06-21 11:00:00 15.1 13 Sudeste 18 Sudeste 0 1005.9 0.7 89
2019-06-21 10:00:00 14.2 12 Este 21 Sudeste 0 1006 1.3 95
2019-06-21 09:00:00 13.6 12 Este 21 Este 0 1005.9 1.5 92
2019-06-21 08:00:00 13.6 9 Este 17 Este 0 1005.2 0.8 97
2019-06-21 07:00:00 13.8 8 Este 18 Este 0.1 1004.7 0.4 98
2019-06-21 06:00:00 14.1 5 Este 18 Este 0.8 1004.4 0 98
2019-06-21 05:00:00 14 10 Este 21 Este 0.7 1004.4 0 98
2019-06-21 04:00:00 14.1 9 Este 17 Este 0.4 1004.3 -0.4 97
2019-06-21 03:00:00 14.3 6 Este 17 Este 0.1 1004.4 0.1 98
2019-06-21 02:00:00 14.4 9 Este 15 Este 1.2 1004.4 0.2 97
2019-06-21 01:00:00 14.8 7 Sudeste 15 Este 0 1004.7 0.8 95
2019-06-21 00:00:00 14.8 6 Este 13 Este 0 1004.3 0.7 95
2019-06-20 23:00:00 14.7 7 Este 9 Este 0 1004.2 0.7 95
2019-06-20 22:00:00 15 2 Este 8 Nordeste 0 1003.9 0.4 93
2019-06-20 21:00:00 15.2 0 Calma 11 Este 0 1003.6 0.5 93
2019-06-20 20:00:00 15.5 3 Este 15 Este 0 1003.5 0.3 92
2019-06-20 19:00:00 15.7 5 Nordeste 15 Nordeste 0 1003.5 0.4 89
2019-06-20 18:00:00 15.8 4 Nordeste 18 Nordeste 0 1003.1 -0.1 88
2019-06-20 17:00:00 16 9 Nordeste 22 Nordeste 0 1003.2 -0.1 87
2019-06-20 16:00:00 16.4 6 Nordeste 22 Norte 0 1003.1 -0.2 88
2019-06-20 15:00:00 16.1 8 Nordeste 18 Nordeste 0 1003.2 0.1 90
2019-06-20 14:00:00 15.8 6 Nordeste 17 Nordeste 0 1003.3 0.4 91
2019-06-20 13:00:00 15.7 8 Este 17 Nordeste 0 1003.3 0.6 92
2019-06-20 12:00:00 15.5 4 Este 17 Este 0 1003.1 0.3 93
2019-06-20 11:00:00 15.1 12 Este 15 Este 0 1002.9 0.3 95
2019-06-20 10:00:00 15.1 9 Este 15 Este 0 1002.7 0.2 96
2019-06-20 09:00:00 14.5 7 Este 13 Este 0 1002.8 0.3 97
2019-06-20 08:00:00 14.3 8 Este 11 Este 0 1002.6 0.1 98
2019-06-20 07:00:00 14.1 0 Calma -- -- 0 1002.5 -0.1 98
2019-06-20 06:00:00 14.3 0 Calma 4 Sudeste 0 1002.5 -0.2 97
2019-06-20 05:00:00 14.4 0 Calma 5 Sudoeste 0 1002.5 -0.5 97
2019-06-20 04:00:00 14.6 0 Calma 8 Sudoeste 0 1002.6 -0.4 98
2019-06-20 03:00:00 14.7 2 Sudoeste 8 Sudoeste 0 1002.7 -0.1 98
2019-06-20 02:00:00 14.7 0 Calma 2 Sudoeste 0.1 1003 0.2 98
2019-06-20 01:00:00 14.8 0 Calma 5 Sudoeste 0 1003 0.9 98
2019-06-20 00:00:00 14.9 0 Calma 9 Oeste 0.6 1002.8 0.7 98
2019-06-19 23:00:00 14.8 0 Calma 5 Noroeste 0 1002.8 1.1 98
2019-06-19 22:00:00 14.9 4 Noroeste 15 Noroeste 0 1002.1 0.8 97
2019-06-19 21:00:00 15.1 8 Noroeste 26 Oeste 0 1002.1 1.2 98
2019-06-19 20:00:00 15.6 17 Oeste 24 Noroeste 0 1001.7 1 95
2019-06-19 19:00:00 16.1 7 Noroeste 15 Noroeste 0 1001.3 0.8 91
2019-06-19 18:00:00 16.5 9 Noroeste 17 Noroeste 0 1000.9 0.6 90
2019-06-19 17:00:00 16.5 11 Oeste 21 Oeste 0 1000.7 0.7 91
2019-06-19 16:00:00 17.7 11 Noroeste 24 Noroeste 0 1000.5 1.1 87
2019-06-19 15:00:00 17.8 13 Noroeste 22 Noroeste 0 1000.3 1.2 86
2019-06-19 14:00:00 17.8 11 Noroeste 21 Noroeste 0 1000 1.4 87
2019-06-19 13:00:00 18.6 7 Norte 15 Norte 0 999.4 1 76
2019-06-19 12:00:00 18.5 8 Noroeste 13 Oeste 0 999.1 1 75
2019-06-19 11:00:00 17 10 Sudoeste 26 Sudoeste 0 998.6 1 90
2019-06-19 10:00:00 16.8 13 Sudoeste 18 Sudoeste 0 998.4 1.3 86
2019-06-19 09:00:00 15.7 10 Sudoeste 17 Sudoeste 0 998.1 1.4 92
2019-06-19 08:00:00 13.8 11 Sudoeste 15 Sudoeste 0 997.6 1.2 96
2019-06-19 07:00:00 13.6 8 Sudoeste 13 Sur 0 997.1 0.9 96
2019-06-19 06:00:00 13.5 7 Sur 15 Sudoeste 0 996.7 0.5 96
2019-06-19 05:00:00 14.4 8 Sudoeste 21 Sudoeste 0 996.4 0 92
2019-06-19 04:00:00 14.8 12 Sudoeste 24 Sudoeste 0 996.2 -0.2 92
2019-06-19 03:00:00 15.3 14 Sudoeste 22 Sur 0 996.2 -0.7 91
2019-06-19 02:00:00 15.1 13 Sur 24 Sudoeste 0 996.4 -0.3 93
2019-06-19 01:00:00 15.2 16 Sur 26 Sur 0.3 996.4 0.1 94
2019-06-19 00:00:00 15.8 14 Sur 21 Sudoeste 0 996.9 0.8 94
2019-06-18 23:00:00 16 9 Sur 17 Sur 0.1 996.7 0.6 91
2019-06-18 22:00:00 16.3 0 Calma 15 Sur 0 996.3 1.5 92
2019-06-18 21:00:00 16.6 9 Sudeste 13 Sudeste 0.3 996.1 1.9 86
2019-06-18 20:00:00 17.2 0 Calma 17 Este 0.3 996.1 1.5 86
2019-06-18 19:00:00 17.9 10 Este 18 Este 0.2 994.8 0 83
2019-06-18 18:00:00 19.4 9 Este 22 Este 0 994.2 -0.6 68
2019-06-18 17:00:00 20.1 11 Este 21 Este 0 994.6 -0.8 66
2019-06-18 16:00:00 18.9 7 Este 15 Sudeste 0 994.8 -0.1 74
2019-06-18 15:00:00 18 5 Noroeste 13 Noroeste 0 994.8 -0.8 78
2019-06-18 14:00:00 16.9 3 Nordeste 18 Noroeste 0 995.4 0.4 89
2019-06-18 13:00:00 17.1 11 Noroeste 24 Noroeste 0 994.9 0.3 90
2019-06-18 12:00:00 16.9 15 Noroeste 30 Oeste 0 995.6 1 88
2019-06-18 11:00:00 15.6 18 Noroeste 26 Noroeste 0 995 0.2 94
2019-06-18 10:00:00 17.2 8 Noroeste 21 Noroeste 0 994.6 -0.6 87
2019-06-18 09:00:00 15.4 5 Sudoeste 13 Sudoeste 0 994.6 -0.9 94
2019-06-18 08:00:00 14.1 6 Sur 18 Sudoeste 0 994.8 -1.1 98
2019-06-18 07:00:00 13.9 7 Sur 13 Sur 0 995.2 -1.2 97
2019-06-18 06:00:00 14.4 4 Sudeste 11 Este 0 995.5 -1.3 97
2019-06-18 05:00:00 13.7 0 Calma -- -- -- 995.9 -1.6 98
2019-06-18 04:00:00 13.8 0 Calma 8 Norte 0 996.4 -2 97
2019-06-18 03:00:00 14.4 5 Noroeste 13 Sudoeste 0 996.8 -1.9 95
2019-06-18 02:00:00 15.3 6 Sudeste 13 Sur 0 997.5 -1.9 92
2019-06-18 01:00:00 15.7 0 Calma 13 Sur 0 998.4 -0.8 91
2019-06-18 00:00:00 15.4 10 Sudeste 13 Sur 0 998.7 -1 91
2019-06-17 23:00:00 15.1 3 Este 8 Sur 0 999.4 0.1 88
2019-06-17 22:00:00 15.2 0 Calma 9 Oeste 0 999.2 -0.6 88
2019-06-17 21:00:00 15.6 7 Oeste 13 Sudoeste 0 999.7 -0.4 88
2019-06-17 20:00:00 15.8 3 Noroeste 9 Norte 0 999.3 -0.8 87
2019-06-17 19:00:00 16.2 6 Oeste 13 Oeste 0 999.8 -0.6 87
2019-06-17 18:00:00 16.3 5 Noroeste 13 Noroeste 0 1000.1 -0.2 87
2019-06-17 17:00:00 16.8 8 Noroeste 13 Noroeste 0 1000.1 -0.3 87
2019-06-17 16:00:00 16.4 7 Norte 17 Norte 0 1000.4 -0.1 86
2019-06-17 15:00:00 17.4 9 Norte 17 Noroeste 0 1000.3 -0.7 84
2019-06-17 14:00:00 16.9 8 Norte 15 Norte 0 1000.4 -0.9 86
2019-06-17 13:00:00 16.7 6 Norte 13 Nordeste 0 1000.5 -1 86
2019-06-17 12:00:00 16.1 5 Norte 13 Noroeste 0 1001 -0.7 85
2019-06-17 11:00:00 16.2 3 Noroeste 8 Noroeste 0 1001.3 -0.4 83
2019-06-17 10:00:00 15.9 0 Calma 5 Nordeste 0 1001.5 -0.1 85
2019-06-17 09:00:00 15.4 0 Calma 5 Norte 0 1001.7 -0.1 88
2019-06-17 08:00:00 14.9 0 Calma 9 Sudoeste 0 1001.7 -0.6 89
2019-06-17 07:00:00 14.8 0 Calma 17 Sudeste 0 1001.6 -1.2 87
2019-06-17 06:00:00 14.8 6 Sudeste 17 Sudeste 0 1001.8 -1.7 88
2019-06-17 05:00:00 15 4 Este 5 Sudeste 0 1002.3 -1.4 91
2019-06-17 04:00:00 15 0 Calma 11 Sudeste 0 1002.8 -1.4 90
2019-06-17 03:00:00 15 8 Sudeste 15 Sudeste 0 1003.5 -1.2 90
2019-06-17 02:00:00 14.9 8 Este 13 Este 0 1003.7 -1 91
2019-06-17 01:00:00 14.3 8 Este 13 Este 0 1004.2 0 94
2019-06-17 00:00:00 14.3 10 Este 17 Este 0 1004.7 0.6 93
2019-06-16 23:00:00 14.8 11 Este 17 Este 0 1004.7 0.7 91
2019-06-16 22:00:00 15.5 10 Este 21 Este 0 1004.2 0.5 87
2019-06-16 21:00:00 16.7 10 Este 18 Este 0 1004.1 0.3 82
2019-06-16 20:00:00 17.6 11 Este 26 Este 0 1004 0.2 80
2019-06-16 19:00:00 18.3 10 Este 24 Este 0 1003.7 -0.2 78
2019-06-16 18:00:00 18.7 13 Este 26 Este 0 1003.8 -0.3 76
2019-06-16 17:00:00 19.1 13 Este 30 Nordeste 0 1003.8 -0.6 73
2019-06-16 16:00:00 18.4 13 Este 30 Nordeste 0 1003.9 -0.6 75
2019-06-16 15:00:00 18.6 13 Este 30 Nordeste 0 1004.1 -0.9 71
2019-06-16 14:00:00 18.6 15 Este 32 Este 0 1004.4 -1.1 71
2019-06-16 13:00:00 18.7 12 Nordeste 26 Nordeste 0 1004.5 -1 69
2019-06-16 12:00:00 18 8 Nordeste 21 Nordeste 0 1005 -0.6 68
2019-06-16 11:00:00 17.7 9 Nordeste 18 Sudeste 0 1005.5 0 65
2019-06-16 10:00:00 16.7 3 Sudeste 9 Sur 0 1005.5 0.1 71
2019-06-16 09:00:00 14.1 7 Sudoeste 15 Sur 0 1005.6 0.1 80
2019-06-16 08:00:00 12 10 Sur 17 Sur 0 1005.5 -0.1 87
2019-06-16 07:00:00 11.6 9 Sur 15 Sudoeste 0 1005.4 -0.8 90
2019-06-16 06:00:00 11.6 8 Sudoeste 13 Sudoeste 0 1005.5 -1.1 89
2019-06-16 05:00:00 12.1 4 Sur 5 Sur 0 1005.6 -1.5 87
2019-06-16 04:00:00 13.4 0 Calma 8 Sur 0 1006.2 -1.3 84
2019-06-16 03:00:00 13.9 4 Sur 8 Sur 0 1006.6 -0.9 82
2019-06-16 02:00:00 14.1 4 Sudeste 9 Sudeste 0 1007.1 -0.4 81
2019-06-16 01:00:00 14.2 5 Sudeste 8 Sudeste 0 1007.5 0.4 82
2019-06-16 00:00:00 14.4 5 Sur 8 Sur 0 1007.5 0.3 81
2019-06-15 23:00:00 14.6 7 Sudeste 9 Este 0 1007.5 0.3 81
2019-06-15 22:00:00 15 0 Calma 8 Nordeste 0 1007.1 0.2 79
2019-06-15 21:00:00 15.6 0 Calma 11 Norte 0 1007.2 0.3 76
2019-06-15 20:00:00 15.8 4 Norte 11 Noroeste 0 1007.2 0.6 75
2019-06-15 19:00:00 16.5 5 Norte 15 Norte 0 1006.9 0.7 74
2019-06-15 18:00:00 17.3 8 Noroeste 18 Noroeste 0 1006.9 1 71
2019-06-15 17:00:00 17 8 Norte 18 Noroeste 0 1006.6 0.8 70
2019-06-15 16:00:00 17.8 9 Norte 21 Norte 0 1006.2 0.7 69
2019-06-15 15:00:00 17.7 9 Norte 21 Noroeste 0 1005.9 0.6 67
2019-06-15 14:00:00 18 12 Noroeste 24 Noroeste 0 1005.8 0.8 67
2019-06-15 13:00:00 17.4 13 Noroeste 24 Noroeste 0 1005.5 0.6 67
2019-06-15 12:00:00 16.9 9 Noroeste 15 Noroeste 0 1005.3 0.8 76
2019-06-15 11:00:00 16.9 7 Norte 17 Noroeste 0 1005 0.9 69
2019-06-15 10:00:00 15.4 9 Sudoeste 15 Sur 0 1004.9 1.3 74
2019-06-15 09:00:00 13.8 5 Sudoeste 11 Oeste 0 1004.5 1.4 83
2019-06-15 08:00:00 12.4 7 Sudoeste 17 Sudoeste 0 1004.1 1.1 86
2019-06-15 07:00:00 12.2 7 Sudoeste 13 Sudoeste 0 1003.6 0.4 88
2019-06-15 06:00:00 12.4 5 Sudoeste 22 Sudoeste 0 1003.1 0 86
2019-06-15 05:00:00 12.1 13 Sudoeste 22 Sudoeste 0 1003 -0.3 89
2019-06-15 04:00:00 12.3 14 Sudoeste 21 Sudoeste 0 1003.2 0 88
2019-06-15 03:00:00 12.7 12 Sur 17 Sudoeste 0 1003.1 0 88
2019-06-15 02:00:00 13.2 10 Sudoeste 13 Sur 0 1003.3 0.7 84
2019-06-15 01:00:00 13.3 4 Sur 32 Oeste 0 1003.2 1.3 83
2019-06-15 00:00:00 13.2 6 Oeste 11 Oeste 0 1003.1 1.8 86
2019-06-14 23:00:00 14.2 8 Oeste 18 Oeste 0 1002.6 2 85
2019-06-14 22:00:00 14.3 9 Noroeste 17 Noroeste 0 1001.9 1.7 83
2019-06-14 21:00:00 15.1 8 Noroeste 17 Noroeste 0 1001.3 1.5 76
2019-06-14 20:00:00 16.2 8 Noroeste 13 Noroeste 0 1000.6 1 75
2019-06-14 19:00:00 15.7 8 Norte 15 Norte 0 1000.2 0.6 78
2019-06-14 18:00:00 15.3 5 Norte 21 Norte 0 999.8 0.3 80
2019-06-14 17:00:00 16.1 11 Norte 18 Norte 0 999.6 0.1 77
2019-06-14 16:00:00 16.3 11 Noroeste 18 Noroeste 0 999.6 0.2 78
2019-06-14 15:00:00 16.5 10 Noroeste 21 Noroeste 0 999.5 0.3 78
2019-06-14 14:00:00 15.2 8 Norte 17 Noroeste 0 999.5 0.3 82
2019-06-14 13:00:00 15.2 5 Norte 18 Noroeste 0 999.4 0.3 83
2019-06-14 12:00:00 15.4 10 Noroeste 18 Noroeste -- 999.2 0.5 81
2019-06-14 11:00:00 14.6 11 Noroeste 17 Noroeste -- 999.2 1.1 84
2019-06-14 10:00:00 13.6 9 Noroeste 13 Noroeste 0 999.1 0.8 88
2019-06-14 09:00:00 11.7 8 Sudoeste 15 Sudoeste 0 998.7 0.8 92
2019-06-14 08:00:00 10.1 8 Sudoeste 22 Sudoeste 0 998.1 0.1 97
2019-06-14 07:00:00 9.9 8 Sudoeste 15 Sudoeste 0 998.3 -0.1 97
2019-06-14 06:00:00 10.4 9 Sudoeste 13 Sudoeste 0 997.9 -0.7 96
2019-06-14 05:00:00 10.7 9 Sudoeste 13 Sudoeste 0 998 -1 95
2019-06-14 04:00:00 11.4 0 Calma 5 Sudoeste 0 998.4 -1 92
2019-06-14 03:00:00 11.8 0 Calma 8 Sudoeste 0 998.6 -0.7 90
2019-06-14 02:00:00 12.4 0 Calma 8 Sur 0 999 -0.3 87
2019-06-14 01:00:00 12.6 3 Sur 11 Sudoeste 0 999.4 0.3 87
2019-06-14 00:00:00 12.8 7 Sur 9 Sur 0 999.3 0.4 87
2019-06-13 23:00:00 13.2 6 Sur 8 Sur 0 999.3 0.7 86
2019-06-13 22:00:00 13.8 5 Sur 18 Sur 0 999.1 0.9 83
2019-06-13 21:00:00 14 2 Este 5 Este 0 998.9 0.8 81
2019-06-13 20:00:00 13.9 0 Calma 5 Este 0 998.6 0.7 82
2019-06-13 19:00:00 14.2 0 Calma 9 Este 0 998.2 0.4 78
2019-06-13 18:00:00 14.1 3 Nordeste 13 Nordeste 0 998.1 0.3 79
2019-06-13 17:00:00 14.2 5 Norte 15 Nordeste 0 997.9 0.1 79
2019-06-13 16:00:00 14.9 8 Nordeste 18 Norte 0 997.8 0.4 77
2019-06-13 15:00:00 15.4 11 Norte 21 Norte 0 997.8 0.5 73
2019-06-13 14:00:00 14.1 6 Nordeste 15 Norte 0 997.8 0.7 79
2019-06-13 13:00:00 14.2 8 Nordeste 21 Nordeste 0 997.4 0.2 78
2019-06-13 12:00:00 15.3 10 Norte 21 Noroeste 0 997.3 -0.1 75
2019-06-13 11:00:00 15 6 Norte 13 Noroeste 0 997.1 -0.1 76
2019-06-13 10:00:00 15.2 9 Sudeste 17 Sur 0 997.2 -0.2 72
2019-06-13 09:00:00 12.4 6 Sur 13 Sudoeste 0 997.4 0.1 86
2019-06-13 08:00:00 10.9 10 Sur 32 Sudoeste 0 997.2 -0.1 93
2019-06-13 07:00:00 9.9 9 Sudoeste 13 Sur 0 997.4 -0.2 94
2019-06-13 06:00:00 10.5 2 Sudoeste -- -- 0 997.3 -0.8 92
2019-06-13 05:00:00 11.2 4 Sudeste 5 Sudeste 0 997.3 -1.2 91
2019-06-13 04:00:00 11.7 0 Calma 5 Sur 0 997.6 -1.5 88
2019-06-13 03:00:00 11.8 5 Sur 8 Sur 0 998.1 -1.4 88
2019-06-13 02:00:00 12.2 4 Sudeste -- -- 0 998.5 -1.5 87
2019-06-13 01:00:00 12.3 2 Sudeste 4 Este 0 999.1 -0.6 86
2019-06-13 00:00:00 12.5 0 Calma 5 Sur 0 999.5 -0.2 85
2019-06-12 23:00:00 12.9 0 Calma 11 Noroeste 0 1000 0.4 79
2019-06-12 22:00:00 13.2 5 Noroeste 13 Noroeste 0 999.7 0 78
2019-06-12 21:00:00 13.8 8 Noroeste 22 Noroeste 0 999.7 -0.2 77
2019-06-12 20:00:00 14.6 12 Noroeste 22 Noroeste 0 999.6 -0.3 77
2019-06-12 19:00:00 14.7 12 Noroeste 22 Noroeste 0 999.7 -0.4 77
2019-06-12 18:00:00 14.9 13 Noroeste 28 Noroeste 0 999.9 -0.4 76
2019-06-12 17:00:00 15.8 18 Noroeste 32 Noroeste 0 999.9 -0.7 72
2019-06-12 16:00:00 16.1 17 Noroeste 32 Oeste 0 1000.1 -0.6 71
2019-06-12 15:00:00 15.5 18 Noroeste 35 Oeste 0 1000.3 -0.6 72
2019-06-12 14:00:00 16.7 22 Oeste 33 Oeste 0 1000.6 -0.2 68
2019-06-12 13:00:00 15.1 14 Oeste 32 Oeste 0 1000.7 -0.2 68
2019-06-12 12:00:00 13.2 21 Oeste 32 Noroeste 0 1000.9 0.3 72
2019-06-12 11:00:00 12.4 17 Oeste 32 Oeste 0.2 1000.8 0.4 78
2019-06-12 10:00:00 12.1 20 Oeste 37 Oeste 0.1 1000.9 0.6 78
2019-06-12 09:00:00 12 22 Oeste 33 Oeste 0 1000.6 0 77
2019-06-12 08:00:00 10.9 18 Oeste 30 Oeste 0 1000.4 -0.5 82
2019-06-12 07:00:00 9.8 14 Sudoeste 24 Sudoeste 0 1000.3 -1.1 86
2019-06-12 06:00:00 9.3 14 Sudoeste 26 Sudoeste 0 1000.6 -1.2 89
2019-06-12 05:00:00 10.2 14 Sudoeste 35 Oeste 0.6 1000.9 -1.6 88
2019-06-12 04:00:00 10.4 14 Oeste 28 Oeste 0 1001.4 -1.5 86
2019-06-12 03:00:00 11.4 14 Sudoeste 33 Oeste 0.2 1001.8 -1.5 82
2019-06-12 02:00:00 11.9 20 Oeste 39 Oeste 0 1002.5 -1 82
2019-06-12 01:00:00 12 24 Oeste 45 Oeste 0.2 1002.9 -0.7 83
2019-06-12 00:00:00 11.9 22 Oeste 37 Oeste 0 1003.3 -0.7 82
2019-06-11 23:00:00 12.4 24 Oeste 46 Oeste 0 1003.5 -0.6 81
2019-06-11 22:00:00 13.1 23 Oeste 41 Oeste 0 1003.6 -0.6 81
2019-06-11 21:00:00 14 27 Oeste 41 Oeste 0 1004 -0.3 76
2019-06-11 20:00:00 14.3 24 Oeste 41 Noroeste 0 1004.1 -0.1 76
2019-06-11 19:00:00 15 21 Noroeste 39 Noroeste 0 1004.2 -0.3 76
2019-06-11 18:00:00 14.8 24 Oeste 37 Noroeste 0 1004.3 -0.5 79
2019-06-11 17:00:00 15.4 23 Oeste 37 Oeste 0 1004.2 -0.7 75
2019-06-11 16:00:00 15.9 22 Oeste 37 Noroeste 0 1004.5 -0.2 72
2019-06-11 15:00:00 15.1 20 Noroeste 35 Noroeste 0 1004.8 0.4 74
2019-06-11 14:00:00 14.5 23 Oeste 33 Oeste 0 1004.9 0.9 76
2019-06-11 13:00:00 14.8 17 Noroeste 32 Noroeste 0 1004.7 0.8 72
2019-06-11 12:00:00 14.9 17 Noroeste 32 Noroeste 0 1004.4 0.8 72
2019-06-11 11:00:00 13.9 15 Noroeste 26 Oeste 0 1004 0.8 76
2019-06-11 10:00:00 12.6 15 Noroeste 30 Noroeste 0.2 1003.9 1.2 80
2019-06-11 09:00:00 12.4 13 Noroeste 30 Noroeste 0 1003.6 1.1 77
2019-06-11 08:00:00 11.8 10 Noroeste 24 Noroeste 0.8 1003.2 0.6 82
2019-06-11 07:00:00 12.1 11 Noroeste 28 Noroeste 0 1002.7 -0.3 79
2019-06-11 06:00:00 12.1 14 Noroeste 32 Oeste 0 1002.5 -0.5 81
2019-06-11 05:00:00 11.9 15 Noroeste 32 Noroeste 0 1002.6 -0.8 88
2019-06-11 04:00:00 11.6 14 Noroeste 28 Noroeste 0.3 1003 -0.8 92
2019-06-11 03:00:00 11.4 10 Oeste 30 Noroeste 2.1 1003 -0.9 95
2019-06-11 02:00:00 12.1 12 Noroeste 22 Noroeste 0 1003.4 -0.6 89
2019-06-11 01:00:00 12.2 6 Noroeste 18 Oeste 0 1003.8 0.1 88
2019-06-11 00:00:00 12.4 5 Sur 28 Noroeste 0.1 1003.9 -0.1 90
2019-06-10 23:00:00 12.7 13 Oeste 24 Noroeste 0 1004 -0.1 86
2019-06-10 22:00:00 13.3 14 Noroeste 24 Oeste 0 1003.7 -0.5 81
2019-06-10 21:00:00 13.4 10 Noroeste 24 Oeste 0 1004 -0.4 80
2019-06-10 20:00:00 13.7 13 Noroeste 28 Oeste 0 1004.1 -0.6 82
2019-06-10 19:00:00 14.3 10 Noroeste 30 Noroeste 0 1004.2 -0.5 81
2019-06-10 18:00:00 15.3 15 Noroeste 24 Oeste 0 1004.4 -0.7 81
2019-06-10 17:00:00 15.2 14 Noroeste 26 Noroeste 0 1004.7 -0.9 76
2019-06-10 16:00:00 16.1 15 Noroeste 24 Noroeste 0 1004.7 -1.1 71
2019-06-10 15:00:00 15.9 12 Noroeste 24 Noroeste 0 1005.1 -0.9 70
2019-06-10 14:00:00 16 13 Noroeste 26 Oeste 0 1005.6 -0.4 75
2019-06-10 13:00:00 15.8 15 Oeste 24 Oeste 0 1005.8 -0.5 78
2019-06-10 12:00:00 15 10 Norte 17 Noroeste 0 1006 0 80
2019-06-10 11:00:00 14.4 11 Noroeste 15 Noroeste 0 1006 -0.2 79
2019-06-10 10:00:00 11.8 7 Sudoeste 17 Sudoeste 0 1006.3 0.1 88
2019-06-10 09:00:00 10.6 9 Sudoeste 17 Sudoeste 0 1006 0 93
2019-06-10 08:00:00 9.3 10 Sudoeste 28 Sudoeste 0 1006.2 0 98
2019-06-10 07:00:00 8.7 11 Sudoeste 17 Sudoeste 0 1006.2 0.1 99
2019-06-10 06:00:00 8.5 12 Sudoeste 18 Sudoeste 0 1006 -0.5 99
2019-06-10 05:00:00 8.7 12 Sudoeste 15 Sudoeste 0 1006.2 -1.1 99
2019-06-10 04:00:00 9 11 Sudoeste 17 Sur 0 1006.1 -1.6 98
2019-06-10 03:00:00 9.3 4 Sudoeste 11 Sudoeste 0 1006.5 -1.2 97
2019-06-10 02:00:00 10.1 5 Sudoeste 11 Sudoeste 0 1007.3 -0.3 94
2019-06-10 01:00:00 10.9 8 Sudoeste 13 Sudoeste 0 1007.7 0.5 94
2019-06-10 00:00:00 11.5 8 Sudoeste 11 Sur 0 1007.7 0.5 93
2019-06-09 23:00:00 12.2 6 Sudoeste 9 Sur 0 1007.6 0.6 91
2019-06-09 22:00:00 12.7 3 Sur 8 Sudeste 0 1007.2 0.4 89
2019-06-09 21:00:00 13.2 7 Sudeste 13 Sudeste 0 1007.2 0.7 83
2019-06-09 20:00:00 13.7 5 Este 11 Este 0 1007 0.8 82
2019-06-09 19:00:00 13.4 0 Calma 11 Nordeste 0 1006.8 0.8 85
2019-06-09 18:00:00 13.7 4 Nordeste 18 Nordeste 0 1006.5 0.5 84
2019-06-09 17:00:00 14.2 8 Nordeste 18 Nordeste 0 1006.2 0.5 78
2019-06-09 16:00:00 14.1 6 Nordeste 17 Nordeste 0 1006 0.3 79
2019-06-09 15:00:00 13.7 5 Nordeste 21 Nordeste 0 1006 0.7 87
2019-06-09 14:00:00 14.8 7 Nordeste 21 Nordeste 0 1005.7 0.6 81
2019-06-09 13:00:00 13.8 5 Nordeste 17 Norte 0 1005.7 0.8 87
2019-06-09 12:00:00 12.7 8 Este 17 Este 0.1 1005.3 0.6 93
2019-06-09 11:00:00 12.9 9 Este 15 Este 0 1005.1 0.7 93
2019-06-09 10:00:00 12.8 7 Sudeste 15 Sudeste 0 1004.9 0.5 91
2019-06-09 09:00:00 11.8 13 Este 26 Sudeste 0.1 1004.7 0.4 96
2019-06-09 08:00:00 12.4 13 Sudeste 17 Sudeste 0.4 1004.4 -0.2 98
2019-06-09 07:00:00 12.2 5 Sudeste 9 Sudeste 0.2 1004.4 -0.4 98
2019-06-09 06:00:00 12.3 8 Sudeste 13 Este 0.2 1004.3 -0.9 96
2019-06-09 05:00:00 12.8 6 Este 15 Este 0 1004.6 -1.4 91
2019-06-09 04:00:00 12.6 5 Este 13 Este 0 1004.8 -1.7 90
2019-06-09 03:00:00 12.6 8 Este 11 Este 0 1005.2 -1.8 90
2019-06-09 02:00:00 12.8 5 Este 13 Este 0 1006 -0.9 89
2019-06-09 01:00:00 12.9 6 Este 15 Este 0 1006.5 -0.5 87
2019-06-09 00:00:00 13.2 9 Este 18 Este 0 1007 -0.1 85
2019-06-08 23:00:00 12.9 9 Este 21 Sudeste 0 1006.9 -0.1 86
2019-06-08 22:00:00 12.7 9 Este 15 Nordeste 0.1 1007 -0.3 88
2019-06-08 21:00:00 13 7 Este 17 Este 0.3 1007.1 -0.7 89
2019-06-08 20:00:00 13.6 9 Este 21 Este 0 1007 -0.7 82
2019-06-08 19:00:00 14.1 11 Este 21 Este 0 1007.3 -0.5 80
2019-06-08 18:00:00 14.4 8 Nordeste 22 Nordeste 0 1007.8 0.1 78
2019-06-08 17:00:00 14.7 7 Este 22 Nordeste 0 1007.7 -0.4 77
2019-06-08 16:00:00 15.6 11 Este 28 Este 0 1007.8 -0.5 71
2019-06-08 15:00:00 16.2 10 Este 26 Este 0 1007.7 -0.7 70
2019-06-08 14:00:00 16.2 10 Nordeste 26 Nordeste 0 1008.1 -0.6 69
2019-06-08 13:00:00 15.6 9 Nordeste 21 Nordeste 0 1008.3 -0.7 70
2019-06-08 12:00:00 15.5 9 Norte 17 Nordeste 0 1008.4 -0.7 73
2019-06-08 11:00:00 14.1 6 Este 17 Sudoeste 0 1008.7 -0.3 77
2019-06-08 10:00:00 11.3 12 Sudoeste 21 Sudoeste 0 1009 0.3 85
2019-06-08 09:00:00 9.7 13 Sudoeste 22 Sudoeste 0 1009.1 0.4 90
2019-06-08 08:00:00 8.2 14 Sudoeste 26 Sudoeste 0 1009 0.4 97
2019-06-08 07:00:00 8.1 13 Sudoeste 22 Sudoeste 0 1008.7 0.2 95
2019-06-08 06:00:00 8.2 14 Sudoeste 22 Sudoeste 0 1008.7 0.1 96
2019-06-08 05:00:00 8.6 12 Sudoeste 17 Sur 0 1008.6 0 95
2019-06-08 04:00:00 8.8 10 Sudoeste 21 Sudoeste 0 1008.5 -0.2 96
2019-06-08 03:00:00 9.2 14 Sudoeste 21 Sudoeste 0 1008.6 0.1 97
2019-06-08 02:00:00 9.8 9 Sudoeste 15 Sudoeste 0 1008.6 0.6 96
2019-06-08 01:00:00 10.5 4 Sudoeste 13 Sudoeste 0 1008.7 1.3 95
2019-06-08 00:00:00 11.5 10 Oeste 17 Oeste 0 1008.5 1.7 88
2019-06-07 23:00:00 11.7 7 Sudoeste 15 Oeste 0 1008 1.7 89
2019-06-07 22:00:00 12.7 11 Oeste 21 Oeste 0.1 1007.4 1.6 83
2019-06-07 21:00:00 13.5 12 Oeste 24 Oeste 0 1006.8 1.7 78
2019-06-07 20:00:00 13.6 15 Oeste 28 Oeste 0 1006.3 1.8 79
2019-06-07 19:00:00 13.2 19 Oeste 37 Oeste 1.2 1005.8 2.1 83
2019-06-07 18:00:00 12.4 16 Oeste 35 Noroeste 0.3 1005.1 1.8 86
2019-06-07 17:00:00 13.9 24 Oeste 42 Oeste 0 1004.5 2.2 71
2019-06-07 16:00:00 15.1 27 Oeste 45 Oeste 0 1003.7 2.7 62
2019-06-07 15:00:00 11.9 39 Oeste 68 Noroeste 0.2 1003.3 3.5 82
2019-06-07 14:00:00 12.9 24 Oeste 55 Oeste 0 1002.3 3.9 74
2019-06-07 13:00:00 14.9 28 Oeste 54 Noroeste 0 1001 3.7 62
2019-06-07 12:00:00 15.3 28 Oeste 50 Oeste 0 999.8 3.6 55
2019-06-07 11:00:00 15.3 30 Oeste 61 Oeste 0 998.4 3.4 53
2019-06-07 10:00:00 14.8 32 Oeste 68 Oeste 0 997.3 3.6 56
2019-06-07 09:00:00 13.2 37 Oeste 63 Oeste 0 996.2 4.1 58
2019-06-07 08:00:00 11.8 32 Oeste 74 Oeste 0 995 3.7 66
2019-06-07 07:00:00 12.2 40 Oeste 65 Sudoeste 0 993.7 3.2 64
2019-06-07 06:00:00 12.4 40 Oeste 63 Oeste 0 992.1 2.8 60
2019-06-07 05:00:00 12.1 38 Oeste 67 Oeste 0 991.3 2.8 62
2019-06-07 04:00:00 12.1 37 Oeste 63 Oeste 0 990.5 2.2 63
2019-06-07 03:00:00 12.1 35 Oeste 68 Oeste 0 989.3 1.5 61
2019-06-07 02:00:00 12.5 31 Oeste 55 Oeste 0 988.5 1.4 63
2019-06-07 01:00:00 13 32 Sudoeste 52 Sudoeste 0 988.3 2.2 61
2019-06-07 00:00:00 13.6 23 Oeste 46 Sudoeste 0 987.8 2 59
2019-06-06 23:00:00 14.6 24 Oeste 41 Oeste 0 987.1 1.5 58
2019-06-06 22:00:00 15.3 26 Oeste 46 Oeste 0 986.1 1.2 57
2019-06-06 21:00:00 16 10 Sudoeste 22 Sudoeste 0 985.8 0.8 73
2019-06-06 20:00:00 15.6 10 Sudoeste 24 Oeste 0.4 985.6 -0.8 80
2019-06-06 19:00:00 16.1 9 Oeste 13 Oeste 0 984.9 -1.5 83
2019-06-06 18:00:00 15.5 3 Este 13 Noroeste 0.9 985 -2 81
2019-06-06 17:00:00 17.5 6 Noroeste 13 Noroeste 0 986.4 -2.4 66
2019-06-06 16:00:00 19.3 14 Sur 45 Sur 0 986.4 -4.3 49
2019-06-06 15:00:00 20.3 28 Sudeste 42 Sur 0 987 -5.4 45
2019-06-06 14:00:00 19.4 18 Este 37 Este 0 988.8 -5.2 58
2019-06-06 13:00:00 17.8 17 Este 37 Este 0 990.7 -4.6 61
2019-06-06 12:00:00 16.3 15 Este 28 Sudeste 0 992.4 -3.5 63
2019-06-06 11:00:00 14.6 15 Este 26 Este 0 994 -2.7 69
2019-06-06 10:00:00 12.6 12 Sudeste 21 Sudeste 0 995.3 -1.8 79
2019-06-06 09:00:00 11.2 8 Sur 21 Sur 0 995.9 -2.3 83
2019-06-06 08:00:00 8.2 17 Sur 24 Sur 0 996.7 -1.7 92
2019-06-06 07:00:00 7.8 9 Sur 21 Sudoeste 0 997.1 -1.9 96
2019-06-06 06:00:00 8 15 Sudoeste 22 Sur 0 998.2 -1.2 96
2019-06-06 05:00:00 8.3 12 Sudoeste 21 Sur 0 998.4 -1.6 96
2019-06-06 04:00:00 8.9 13 Sudoeste 22 Sudoeste 0 999 -1.4 95
2019-06-06 03:00:00 9.4 12 Sudoeste 21 Sudoeste 0 999.4 -1.1 94
2019-06-06 02:00:00 10 13 Sudoeste 18 Sudoeste 0 1000 -0.5 95
2019-06-06 01:00:00 9.8 9 Sudoeste 17 Sur 0 1000.4 -0.1 94
2019-06-06 00:00:00 10.3 9 Sur 15 Sur 0 1000.5 -0.1 92
2019-06-05 23:00:00 10.4 7 Sudoeste 13 Sudoeste 0 1000.5 0.2 88
2019-06-05 22:00:00 10.6 10 Sudoeste 26 Oeste 0.7 1000.5 0.5 88
2019-06-05 21:00:00 11.4 13 Oeste 26 Sudoeste 0.6 1000.6 0.9 88
2019-06-05 20:00:00 12.1 9 Sudoeste 26 Noroeste 0.4 1000.3 0 89
2019-06-05 19:00:00 13.4 12 Noroeste 22 Noroeste 0 1000 0 75
2019-06-05 18:00:00 14.3 11 Oeste 37 Oeste 0 999.7 -0.2 71
2019-06-05 17:00:00 14.2 26 Oeste 39 Oeste 0 1000.3 0.4 66
2019-06-05 16:00:00 15.6 16 Oeste 39 Noroeste 0 1000 0.2 65
2019-06-05 15:00:00 15.9 27 Oeste 39 Noroeste 0 999.9 0.8 67
2019-06-05 14:00:00 14.8 24 Oeste 37 Oeste 0.1 999.9 1.1 72
2019-06-05 13:00:00 12.2 23 Noroeste 48 Oeste 0 999.8 1.3 77
2019-06-05 12:00:00 13.2 21 Oeste 46 Noroeste 0 999.1 0.9 74
2019-06-05 11:00:00 13.9 26 Oeste 39 Oeste 0 998.8 1 72
2019-06-05 10:00:00 13.7 20 Oeste 45 Noroeste 0.1 998.5 1.4 74
2019-06-05 09:00:00 11.5 18 Oeste 33 Noroeste 0.2 998.2 1.3 85
2019-06-05 08:00:00 11.4 22 Oeste 45 Oeste 0 997.8 0.8 86
2019-06-05 07:00:00 11.7 15 Oeste 28 Oeste 0 997.1 -0.1 84
2019-06-05 06:00:00 11.9 15 Oeste 28 Oeste 0 996.9 -0.6 82
2019-06-05 05:00:00 11.9 15 Oeste 28 Oeste 0 997 -0.6 82
2019-06-05 04:00:00 12 14 Oeste 30 Oeste 0 997.2 -0.8 85
2019-06-05 03:00:00 12.2 16 Oeste 22 Oeste 0 997.5 -0.5 88
2019-06-05 02:00:00 12.5 15 Oeste 28 Oeste 0 997.6 -0.3 89
2019-06-05 01:00:00 12.3 11 Oeste 33 Oeste 3.9 998 0.7 91
2019-06-05 00:00:00 13.2 14 Oeste 35 Oeste 1.2 998 0.6 89
2019-06-04 23:00:00 13.7 14 Noroeste 32 Oeste 0.2 997.9 0.6 86
2019-06-04 22:00:00 14.6 13 Noroeste 28 Oeste 0 997.3 0.2 79
2019-06-04 21:00:00 14.6 13 Noroeste 26 Noroeste 0 997.4 0.5 81
2019-06-04 20:00:00 15.2 15 Noroeste 30 Noroeste 0 997.3 0.6 76
2019-06-04 19:00:00 16.7 19 Oeste 37 Oeste 0 997.1 0.8 73
2019-06-04 18:00:00 17.4 20 Noroeste 41 Oeste 0 996.9 1 73
2019-06-04 17:00:00 17.3 21 Noroeste 42 Oeste 0 996.7 0.9 74
2019-06-04 16:00:00 16.1 30 Oeste 46 Noroeste 0 996.3 0.7 78
2019-06-04 15:00:00 17.2 28 Oeste 39 Oeste 0 995.9 0.7 73
2019-06-04 14:00:00 16.2 25 Noroeste 48 Noroeste 0 995.8 2.1 79
2019-06-04 13:00:00 15.1 31 Oeste 58 Oeste 0 995.6 2.4 83
2019-06-04 12:00:00 14.3 38 Oeste 68 Oeste 0 995.2 2 89
2019-06-04 11:00:00 18.4 10 Oeste 18 Oeste 0 993.7 0.1 70
2019-06-04 10:00:00 17.8 9 Sudoeste 24 Sur 0 993.2 -0.3 76
2019-06-04 09:00:00 16.8 10 Sudeste 15 Sudeste 0 993.2 -0.4 86
2019-06-04 08:00:00 14.8 7 Oeste 13 Oeste 0 993.6 -0.8 97
2019-06-04 07:00:00 14.9 0 Calma 9 Sudeste 0 993.5 -1.5 100
2019-06-04 06:00:00 15 0 Calma 13 Oeste 0 993.6 -2.4 100
2019-06-04 05:00:00 15.1 9 Noroeste 15 Oeste 0 994.4 -2.4 100
2019-06-04 04:00:00 15.3 10 Noroeste 18 Oeste 0 995 -2.2 100
2019-06-04 03:00:00 15.6 15 Oeste 26 Oeste 0 996 -2 99
2019-06-04 02:00:00 15.7 10 Noroeste 15 Noroeste 0 996.8 -1.5 99
2019-06-04 01:00:00 15.9 0 Calma 8 Oeste 0 997.2 -1.6 99
2019-06-04 00:00:00 15.9 4 Oeste 5 Oeste 0 998 -1.2 99
2019-06-03 23:00:00 15.9 0 Calma 4 Norte 0 998.3 -1.1 99
2019-06-03 22:00:00 15.9 2 Norte 9 Noroeste 0 998.8 -0.7 99
2019-06-03 21:00:00 16 3 Noroeste 9 Noroeste 0 999.2 -0.6 99
2019-06-03 20:00:00 16 4 Noroeste 9 Noroeste 0 999.4 -0.6 98
2019-06-03 19:00:00 16.2 4 Norte 11 Norte 0 999.5 -1.1 98
2019-06-03 18:00:00 16.4 4 Norte 13 Norte 0 999.8 -1.3 97
2019-06-03 17:00:00 17 7 Norte 15 Noroeste 0 1000 -1.5 95
2019-06-03 16:00:00 17.3 6 Norte 13 Norte 0 1000.6 -1.4 94
2019-06-03 15:00:00 17.8 9 Norte 15 Noroeste 0 1001.1 -0.8 92
2019-06-03 14:00:00 17.9 8 Norte 17 Noroeste 0 1001.5 -0.7 92
2019-06-03 13:00:00 17.8 8 Norte 17 Norte 0 1002 -0.1 91
2019-06-03 12:00:00 18.4 8 Este 17 Este 0 1001.9 -0.2 86
2019-06-03 11:00:00 16.8 4 Nordeste 11 Este 0 1002.2 0.2 94
2019-06-03 10:00:00 16.6 4 Este 8 Este 0 1002.1 0.2 94
2019-06-03 09:00:00 16 0 Calma 5 Nordeste 0 1002.1 0.5 98
2019-06-03 08:00:00 16 0 Calma 5 Noroeste 0 1002 0.3 98
2019-06-03 07:00:00 15.7 0 Calma 4 Noroeste 0 1001.9 -0.3 98
2019-06-03 06:00:00 15.5 0 Calma 9 Oeste 0 1001.6 -1.1 96
2019-06-03 05:00:00 15.3 4 Noroeste 13 Sudoeste 0 1001.7 -1.4 95
2019-06-03 04:00:00 15.7 8 Sudoeste 11 Sudoeste 0 1002.2 -0.9 97
2019-06-03 03:00:00 15.9 2 Sur 13 Oeste 0 1002.7 -0.6 98
2019-06-03 02:00:00 16 8 Oeste 17 Oeste 0 1003.1 0 98
2019-06-03 01:00:00 16.1 7 Noroeste 18 Oeste 0 1003.1 0.4 97
2019-06-03 00:00:00 16.5 6 Oeste 13 Noroeste 0 1003.3 0.8 94
2019-06-02 23:00:00 16.9 5 Noroeste 11 Noroeste 0 1003.1 0.6 82
2019-06-02 22:00:00 16.9 2 Noroeste 5 Noroeste 0 1002.7 0 82
2019-06-02 21:00:00 17.7 2 Norte 9 Norte 0 1002.5 -0.2 76
2019-06-02 20:00:00 18.9 4 Nordeste 11 Noroeste 0 1002.5 0.3 69
2019-06-02 19:00:00 18.3 2 Norte 13 Norte 0 1002.7 0.5 73
2019-06-02 18:00:00 18.6 7 Norte 13 Noroeste 0 1002.7 0.6 70
2019-06-02 17:00:00 19.6 6 Noroeste 13 Noroeste 0 1002.2 -0.4 64
2019-06-02 16:00:00 18.6 8 Noroeste 13 Noroeste 0 1002.2 -0.3 69
2019-06-02 15:00:00 16.8 6 Noroeste 17 Noroeste 0 1002.1 -0.1 87
2019-06-02 14:00:00 16.3 12 Noroeste 21 Oeste 0 1002.6 1 89
2019-06-02 13:00:00 15.8 10 Noroeste 17 Noroeste 0 1002.5 1.2 92
2019-06-02 12:00:00 15.1 10 Noroeste 18 Noroeste 0 1002.2 1 96
2019-06-02 11:00:00 16.4 10 Norte 22 Norte 0 1001.6 0.9 91
2019-06-02 10:00:00 16.2 3 Sudeste 17 Oeste 0 1001.3 0.6 93
2019-06-02 09:00:00 15.2 14 Oeste 22 Sudoeste 0 1001.2 0.2 93
2019-06-02 08:00:00 16.7 11 Sudoeste 22 Sur 0 1000.7 -0.6 77
2019-06-02 07:00:00 14.3 3 Oeste 9 Oeste 0 1000.7 -0.9 86
2019-06-02 06:00:00 14.4 4 Sudoeste 11 Oeste 0 1001 -0.8 89
2019-06-02 05:00:00 15.3 0 Calma 13 Sudoeste 0 1001.3 -0.9 79
2019-06-02 04:00:00 15.1 9 Oeste 13 Sudoeste 0 1001.6 -0.8 82
2019-06-02 03:00:00 16.6 8 Sudoeste 17 Sudoeste 0 1001.8 -1.2 70
2019-06-02 02:00:00 17.8 9 Oeste 21 Sudoeste 0 1002.2 -0.6 73
2019-06-02 01:00:00 18.4 13 Sudoeste 21 Sudoeste 0 1002.4 0.2 71
2019-06-02 00:00:00 18.3 5 Oeste 11 Oeste 0 1003 0.9 66
2019-06-01 23:00:00 19.1 5 Noroeste 9 Norte 0 1002.8 0.8 59
2019-06-01 22:00:00 19.4 2 Sur 8 Oeste 0 1002.2 0 61
2019-06-01 21:00:00 21.7 5 Oeste 13 Oeste 0 1002.1 -0.1 52
2019-06-01 20:00:00 21.3 8 Noroeste 22 Noroeste 0 1002 -0.4 58
2019-06-01 19:00:00 20.2 13 Noroeste 22 Noroeste 0 1002.2 -0.3 70
2019-06-01 18:00:00 21.1 10 Noroeste 18 Noroeste 0 1002.2 -0.5 65
2019-06-01 17:00:00 21.7 11 Noroeste 17 Noroeste 0 1002.4 -0.7 61
2019-06-01 16:00:00 21.9 9 Noroeste 18 Oeste 0 1002.5 -0.5 60
2019-06-01 15:00:00 21.2 12 Noroeste 21 Oeste 0 1002.7 -0.3 65
2019-06-01 14:00:00 21.7 13 Noroeste 21 Noroeste 0 1003.1 0.1 60
2019-06-01 13:00:00 22.8 10 Noroeste 18 Oeste 0 1003 0.2 56
2019-06-01 12:00:00 22.4 12 Noroeste 18 Oeste 0 1003 0.4 55
2019-06-01 11:00:00 23.1 10 Noroeste 18 Oeste 0 1003 0.5 51
2019-06-01 10:00:00 23 7 Oeste 21 Sudoeste 0 1002.8 0.6 51
2019-06-01 09:00:00 20.3 12 Sudoeste 30 Sudoeste 0 1002.6 0.3 53
2019-06-01 08:00:00 18.5 14 Sudoeste 37 Sudoeste 0 1002.5 0.1 56
2019-06-01 07:00:00 18.4 15 Sudoeste 28 Sudoeste 0 1002.2 -0.6 55
2019-06-01 06:00:00 18.8 19 Sudoeste 30 Sudoeste 0 1002.3 -0.8 55
2019-06-01 05:00:00 18.8 17 Sudoeste 26 Sudoeste 0 1002.4 -0.9 55
2019-06-01 04:00:00 18.4 13 Sudoeste 24 Sudoeste 0 1002.8 -1.1 59
2019-06-01 03:00:00 17.6 9 Oeste 13 Oeste 0 1003.1 -0.8 65
2019-06-01 02:00:00 18.1 10 Oeste 15 Sudoeste 0 1003.3 -0.4 64
2019-06-01 01:00:00 17.2 5 Oeste 9 Oeste 0 1003.9 0.6 78
2019-06-01 00:00:00 19.4 0 Calma 5 Sudeste 0 1003.9 0.6 70
2019-05-31 23:00:00 19.2 7 Sudeste 15 Sudeste 0 1003.7 0.4 77
2019-05-31 22:00:00 21.7 12 Sudeste 15 Sudeste 0 1003.3 -0.4 69
2019-05-31 21:00:00 25 14 Sudeste 24 Sudeste 0 1003.3 -0.7 60
2019-05-31 20:00:00 27.5 18 Sudeste 30 Sudeste 0 1003.3 -1.2 45
2019-05-31 19:00:00 28.5 21 Sudeste 28 Sudeste 0 1003.7 -1.3 43
2019-05-31 18:00:00 28.1 19 Sudeste 30 Sudeste 0 1004 -1.4 46
2019-05-31 17:00:00 27.2 26 Sudeste 35 Este 0 1004.5 -1.3 47
2019-05-31 16:00:00 27.1 24 Sudeste 33 Este 0 1005 -1 51
2019-05-31 15:00:00 26.4 28 Sudeste 35 Sudeste 0 1005.4 -0.5 52
2019-05-31 14:00:00 24.9 15 Este 24 Este 0 1005.8 -0.3 59
2019-05-31 13:00:00 25 10 Este 18 Este 0 1006 -0.3 60
2019-05-31 12:00:00 24.5 8 Este 17 Sudeste 0 1005.9 -0.4 63
2019-05-31 11:00:00 22.8 8 Sudeste 13 Sudeste 0 1006.1 -0.4 66
2019-05-31 10:00:00 20.6 3 Sur 13 Sur 0 1006.3 -0.2 68
2019-05-31 09:00:00 17.9 8 Sur 22 Sur 0 1006.3 -0.2 74
2019-05-31 08:00:00 14.9 12 Sudoeste 21 Sur 0 1006.5 -0.5 85
2019-05-31 07:00:00 12.8 9 Sudeste 15 Sudeste 0 1006.5 -0.9 95
2019-05-31 06:00:00 12.9 10 Sudeste 13 Sudeste 0 1006.5 -1.4 94
2019-05-31 05:00:00 13.4 11 Sudeste 15 Sudeste 0 1007 -1.3 96
2019-05-31 04:00:00 13.5 13 Sudeste 15 Sudeste 0 1007.4 -1.4 95
2019-05-31 03:00:00 13.9 12 Sudeste 15 Sudeste 0 1007.9 -1.1 93
2019-05-31 02:00:00 14.4 12 Sudeste 17 Sudeste 0 1008.3 -0.7 89
2019-05-31 01:00:00 14.3 13 Sudeste 17 Sudeste 0 1008.8 0.5 87
2019-05-31 00:00:00 15.2 13 Sudeste 17 Sudeste 0 1009 0.9 85
2019-05-30 23:00:00 15.4 10 Sudeste 17 Sudeste 0 1009 0.9 81
2019-05-30 22:00:00 18.6 13 Este 22 Este 0 1008.3 -0.1 69
2019-05-30 21:00:00 21.5 17 Este 28 Este 0 1008.1 -0.5 58
2019-05-30 20:00:00 22.6 21 Este 37 Este 0 1008.1 -0.7 52
2019-05-30 19:00:00 23.6 22 Este 42 Este 0 1008.4 -0.6 47
2019-05-30 18:00:00 24.5 29 Sudeste 37 Este 0 1008.6 -0.7 47
2019-05-30 17:00:00 24.6 13 Este 48 Norte 0 1008.8 -0.8 50
2019-05-30 16:00:00 24.7 16 Este 32 Este 0 1009 -0.9 51
2019-05-30 15:00:00 23.7 23 Este -- -- -- 1009.3 -0.9 55
2019-05-30 14:00:00 22.1 10 Nordeste 22 Este 0 1009.6 -0.5 61
2019-05-30 13:00:00 20.1 8 Nordeste 18 Este 0 1009.9 -0.2 71
2019-05-30 12:00:00 19.6 7 Nordeste 15 Este 0 1010.2 0.2 73
2019-05-30 11:00:00 17.7 5 Norte 9 Noroeste 0 1010.1 0.4 77
2019-05-30 10:00:00 18 3 Noroeste 15 Sur 0 1010.1 0.7 77
2019-05-30 09:00:00 16 5 Sur 11 Sur 0 1010 0.8 78
2019-05-30 08:00:00 13.2 9 Sur 24 Sudoeste 0 1009.7 0.2 86
2019-05-30 07:00:00 12.3 12 Sudoeste 24 Sudoeste 0 1009.4 -0.6 88
2019-05-30 06:00:00 13.2 17 Sudoeste 28 Sudoeste 0 1009.2 -1.1 85
2019-05-30 05:00:00 12.2 17 Sudoeste 26 Sur 0 1009.5 -1.2 89
2019-05-30 04:00:00 11.6 7 Sur -- -- 0 1010 -1 90
2019-05-30 03:00:00 12.4 7 Sudeste 11 Sudeste 0 1010.3 -0.9 87
2019-05-30 02:00:00 12.8 8 Sudeste 11 Sudeste 0 1010.7 -0.7 84
2019-05-30 01:00:00 13.1 9 Sudeste 18 Sudeste 0 1011 0.1 86
2019-05-30 00:00:00 13.2 15 Sudeste 24 Sudeste 0 1011.2 0.6 88
2019-05-29 23:00:00 14.1 16 Este 26 Este 0 1011.4 1.2 82
2019-05-29 22:00:00 15.1 15 Este 35 Este 0 1010.9 0.5 75
2019-05-29 21:00:00 16.9 11 Este 26 Este 0 1010.6 0.2 65
2019-05-29 20:00:00 18 17 Este 28 Sudeste 0 1010.2 -0.4 64
2019-05-29 19:00:00 18.4 15 Este 30 Nordeste 0 1010.4 -0.5 64
2019-05-29 18:00:00 18.5 11 Este 24 Este 0 1010.4 -1 70
2019-05-29 17:00:00 18.7 11 Este 24 Nordeste 0 1010.6 -1.2 70
2019-05-29 16:00:00 18.6 9 Este 24 Este 0 1010.9 -1 69
2019-05-29 15:00:00 17.8 12 Este 24 Este 0 1011.4 -0.3 74
2019-05-29 14:00:00 16.9 12 Nordeste 24 Este 0 1011.8 0.3 74
2019-05-29 13:00:00 17.5 13 Este 22 Este 0 1011.9 0.4 74
2019-05-29 12:00:00 16.2 10 Nordeste 21 Norte 0 1011.7 0.4 79
2019-05-29 11:00:00 16.3 6 Nordeste 15 Norte 0 1011.5 0.5 76
2019-05-29 10:00:00 15.7 4 Sur 15 Sudoeste 0 1011.5 0.8 74
2019-05-29 09:00:00 13.3 11 Sudoeste 15 Sur 0 1011.3 0.7 78
2019-05-29 08:00:00 11.2 9 Sudoeste 21 Sudoeste 0 1011 0.5 85
2019-05-29 07:00:00 10.7 10 Sudoeste 17 Sudoeste 0 1010.7 0 87
2019-05-29 06:00:00 11.6 9 Sudoeste 18 Sudoeste 0 1010.6 -0.4 85
2019-05-29 05:00:00 11.6 13 Sudoeste 21 Sudoeste 0 1010.5 -0.5 88
2019-05-29 04:00:00 11.9 8 Sudoeste 17 Sudoeste 0 1010.7 -0.1 88
2019-05-29 03:00:00 11.9 6 Sudoeste 15 Sur 0 1011 0.2 89
2019-05-29 02:00:00 11.9 6 Sudoeste 13 Sudoeste 0 1011 0.1 89
2019-05-29 01:00:00 12.3 8 Sudoeste 11 Sur 0 1010.8 0.3 90
2019-05-29 00:00:00 11.9 3 Sudoeste 9 Sudoeste 0 1010.8 0.5 91
2019-05-28 23:00:00 13.1 5 Noroeste 9 Noroeste 0 1010.9 0.8 86
2019-05-28 22:00:00 13.5 4 Noroeste 13 Noroeste 0 1010.5 0.7 85
2019-05-28 21:00:00 14.3 7 Noroeste 17 Noroeste 0 1010.3 0.7 80
2019-05-28 20:00:00 14.9 9 Noroeste 17 Oeste 0 1010.1 0.6 78
2019-05-28 19:00:00 15.9 13 Noroeste 21 Noroeste 0 1009.8 0.5 75
2019-05-28 18:00:00 16.1 14 Noroeste 21 Noroeste 0 1009.6 0.5 74
2019-05-28 17:00:00 16.3 14 Noroeste 24 Noroeste 0 1009.5 0.6 74
2019-05-28 16:00:00 16.6 16 Noroeste 26 Norte 0 1009.3 0.8 74
2019-05-28 15:00:00 16.3 16 Noroeste 24 Noroeste 0 1009.1 0.9 75
2019-05-28 14:00:00 15.8 15 Noroeste 24 Noroeste 0 1008.9 0.8 81
2019-05-28 13:00:00 15.9 15 Noroeste 24 Noroeste 0 1008.5 1 81
2019-05-28 12:00:00 16 14 Oeste 21 Oeste 0 1008.2 1 78
2019-05-28 11:00:00 14.3 13 Oeste 21 Noroeste 0 1008.1 1.2 81
2019-05-28 10:00:00 13.4 8 Sudoeste 26 Oeste 0 1007.5 1 83
2019-05-28 09:00:00 12.3 9 Sudoeste 15 Sudoeste 0 1007.2 0.9 86
2019-05-28 08:00:00 10.8 8 Oeste 21 Sudoeste 0 1006.9 0.8 91
2019-05-28 07:00:00 10.6 10 Sudoeste 17 Sudoeste 0 1006.5 0.4 93
2019-05-28 06:00:00 10 5 Sudoeste 9 Sudoeste 0 1006.3 0.2 95
2019-05-28 05:00:00 10.4 5 Sudoeste 11 Sudoeste 0 1006.1 -0.3 95
2019-05-28 04:00:00 10.9 6 Sudoeste 13 Sudoeste 0 1006.1 -0.5 94
2019-05-28 03:00:00 10.6 4 Sudoeste 8 Oeste 0 1006.1 -0.5 96
2019-05-28 02:00:00 11.2 4 Oeste 9 Noroeste 0 1006.4 -0.2 90
2019-05-28 01:00:00 12.5 4 Noroeste 11 Norte 0 1006.6 0.4 86
2019-05-28 00:00:00 12.9 2 Noroeste 13 Noroeste 0 1006.6 0.5 85